Time;durP1;ratioP1;P1;durP2;ratioP2;P2;SDS_P1;SDS_P2;PMS_P1;PMS_P2;Temp;Humidity;BMP_temperature;BMP_pressure;BME280_temperature;BME280_humidity;BME280_pressure;Samples;Min_cycle;Max_cycle;Signal;HPM_P1;HPM_P2
2022/04/17 00:00:21;;;;;;;15.35;8.27;;;;;;;;;;5072396;28;20503;-70
2022/04/17 00:02:47;;;;;;;13.77;8.60;;;;;;;;;;5072537;28;20044;-69
2022/04/17 00:05:13;;;;;;;13.25;8.20;;;;;;;;;;5072328;28;20506;-70
2022/04/17 00:07:41;;;;;;;26.20;8.00;;;;;;;;;;5072294;28;20119;-69
2022/04/17 00:10:11;;;;;;;19.63;8.80;;;7.00;97.70;;;;;;5072204;28;20036;-70
2022/04/17 00:12:39;;;;;;;16.92;8.38;;;8.10;94.50;;;;;;5072284;28;20049;-70
2022/04/17 00:15:05;;;;;;;16.80;9.05;;;;;;;;;;5072272;28;20414;-70
2022/04/17 00:17:31;;;;;;;18.80;9.13;;;;;;;;;;5072564;28;20056;-70
2022/04/17 00:19:57;;;;;;;17.17;8.57;;;;;;;;;;5073505;28;20055;-70
2022/04/17 00:22:24;;;;;;;13.75;8.45;;;;;;;;;;5072431;28;20392;-70
2022/04/17 00:24:50;;;;;;;15.38;8.43;;;;;;;;;;5071894;28;20125;-70
2022/04/17 00:27:16;;;;;;;15.43;8.35;;;;;;;;;;5072239;28;20046;-70
2022/04/17 00:29:45;;;;;;;16.52;8.88;;;;;;;;;;5072030;28;20041;-70
2022/04/17 00:32:13;;;;;;;19.80;9.05;;;7.70;95.10;;;;;;5072016;28;20373;-70
2022/04/17 00:34:39;;;;;;;18.17;9.05;;;;;;;;;;5071687;28;20058;-70
2022/04/17 00:37:06;;;;;;;15.45;8.52;;;;;;;;;;5072187;28;20143;-70
2022/04/17 00:39:32;;;;;;;18.50;8.93;;;;;;;;;;5055344;28;20049;-70
2022/04/17 00:42:00;;;;;;;14.95;8.52;;;;;;;;;;5071888;28;20040;-70
2022/04/17 00:44:27;;;;;;;17.52;8.73;;;;;;;;;;5072886;28;20063;-70
2022/04/17 00:46:53;;;;;;;15.35;9.23;;;;;;;;;;5072359;28;20086;-70
2022/04/17 00:49:19;;;;;;;15.77;8.75;;;;;;;;;;5072047;28;20064;-70
2022/04/17 00:51:47;;;;;;;17.00;8.60;;;7.70;95.40;;;;;;5071964;28;20047;-70
2022/04/17 00:54:14;;;;;;;14.77;8.90;;;7.70;95.40;;;;;;5072048;28;20049;-70
2022/04/17 00:56:41;;;;;;;15.85;9.85;;;;;;;;;;5071819;28;20400;-70
2022/04/17 00:59:09;;;;;;;15.52;9.30;;;;;;;;;;5071943;28;20098;-70
2022/04/17 01:01:37;;;;;;;20.65;9.18;;;7.60;95.30;;;;;;5072013;28;20048;-70
2022/04/17 01:04:04;;;;;;;19.70;9.57;;;7.60;95.60;;;;;;5071686;28;20049;-69
2022/04/17 01:06:34;;;;;;;21.33;10.27;;;;;;;;;;5072917;28;20043;-69
2022/04/17 01:09:00;;;;;;;17.15;9.30;;;;;;;;;;5071566;28;20449;-70
2022/04/17 01:11:27;;;;;;;16.52;9.20;;;;;;;;;;5071661;28;20550;-69
2022/04/17 01:13:53;;;;;;;20.50;10.30;;;;;;;;;;5071315;28;20052;-69
2022/04/17 01:16:23;;;;;;;22.73;10.27;;;;;;;;;;5071725;28;20041;-70
2022/04/17 01:18:53;;;;;;;19.60;10.73;;;;;;;;;;5054811;28;20508;-69
2022/04/17 01:21:19;;;;;;;18.95;10.40;;;;;;;;;;5072948;28;20060;-69
2022/04/17 01:29:15;;;;;;;20.50;11.07;;;;;;;;;;5057543;28;20139;-69
2022/04/17 01:31:44;;;;;;;24.10;10.82;;;;;;;;;;5071413;28;20041;-69
2022/04/17 01:34:10;;;;;;;19.85;11.35;;;;;;;;;;5054679;28;20055;-69
2022/04/17 01:36:36;;;;;;;16.88;9.55;;;;;;;;;;5071437;28;20041;-70
2022/04/17 01:39:02;;;;;;;17.10;10.07;;;;;;;;;;5071364;28;20439;-70
2022/04/17 01:41:28;;;;;;;22.88;10.43;;;;;;;;;;5071492;28;20489;-70
2022/04/17 01:43:54;;;;;;;24.80;11.55;;;;;;;;;;5071159;28;20560;-70
2022/04/17 01:46:22;;;;;;;21.77;10.77;;;;;;;;;;5071495;28;20377;-70
2022/04/17 01:48:48;;;;;;;23.02;10.60;;;;;;;;;;5071451;28;20102;-70
2022/04/17 01:51:14;;;;;;;17.35;10.38;;;;;;;;;;5071281;28;20044;-70
2022/04/17 01:53:40;;;;;;;21.83;9.80;;;;;;;;;;5054811;28;20044;-70
2022/04/17 01:56:06;;;;;;;21.35;10.85;;;;;;;;;;5074291;28;20053;-70
2022/04/17 01:58:32;;;;;;;19.95;10.98;;;;;;;;;;5075097;28;20389;-70
2022/04/17 02:00:58;;;;;;;24.33;11.60;;;;;;;;;;5058437;28;20067;-70
2022/04/17 02:03:24;;;;;;;19.38;10.73;;;7.60;99.90;;;;;;5074998;28;20408;-70
2022/04/17 02:05:49;;;;;;;19.02;10.82;;;5.80;99.60;;;;;;5074463;28;20123;-70
2022/04/17 02:08:16;;;;;;;20.92;11.02;;;;;;;;;;5074493;28;20044;-70
2022/04/17 02:10:42;;;;;;;21.98;11.57;;;;;;;;;;5074896;28;20489;-70
2022/04/17 02:13:08;;;;;;;20.55;11.82;;;;;;;;;;5075633;28;20086;-70
2022/04/17 02:15:34;;;;;;;23.10;11.15;;;;;;;;;;5074594;28;20044;-70
2022/04/17 02:18:00;;;;;;;24.52;11.65;;;;;;;;;;5074342;28;20105;-70
2022/04/17 02:20:26;;;;;;;22.45;11.60;;;;;;;;;;5057821;28;20460;-70
2022/04/17 02:22:53;;;;;;;21.70;11.18;;;;;;;;;;5057615;28;20412;-69
2022/04/17 02:25:19;;;;;;;22.05;11.98;;;;;;;;;;5057582;28;20044;-70
2022/04/17 02:27:45;;;;;;;19.30;10.95;;;;;;;;;;5074458;28;20040;-70
2022/04/17 02:30:11;;;;;;;25.45;12.43;;;;;;;;;;5074389;28;20038;-69
2022/04/17 02:32:37;;;;;;;22.63;11.02;;;;;;;;;;5074081;28;20059;-69
2022/04/17 02:35:03;;;;;;;20.50;11.90;;;;;;;;;;5074151;28;20062;-70
2022/04/17 02:37:29;;;;;;;31.85;12.73;;;;;;;;;;5074319;28;20370;-69
2022/04/17 02:39:56;;;;;;;27.13;11.93;;;6.30;96.80;;;;;;5057441;28;20044;-70
2022/04/17 02:42:22;;;;;;;22.95;12.32;;;;;;;;;;5075320;28;20090;-70
2022/04/17 02:44:48;;;;;;;30.13;11.93;;;;;;;;;;5073813;28;20049;-70
2022/04/17 02:49:59;;;;;;;31.20;13.35;;;;;;;;;;5073728;28;20044;-70
2022/04/17 02:52:25;;;;;;;21.85;12.48;;;;;;;;;;5057093;28;20124;-70
2022/04/17 02:54:53;;;;;;;22.08;12.80;;;;;;;;;;5073789;28;20484;-70
2022/04/17 02:57:20;;;;;;;25.88;12.52;;;;;;;;;;5073989;28;20049;-69
2022/04/17 02:59:46;;;;;;;26.90;13.80;;;;;;;;;;5073856;28;20060;-69
2022/04/17 03:07:41;;;;;;;25.10;12.68;;;;;;;;;;5072496;28;20047;-70
2022/04/17 03:10:07;;;;;;;25.98;13.57;;;5.50;97.20;;;;;;5073442;28;20042;-70
2022/04/17 03:12:36;;;;;;;28.27;13.55;;;6.40;97.30;;;;;;5056729;28;20111;-69
2022/04/17 03:15:03;;;;;;;26.90;13.40;;;;;;;;;;5073137;28;20056;-70
2022/04/17 03:17:29;;;;;;;31.55;15.05;;;;;;;;;;5073509;28;20055;-70
2022/04/17 03:19:55;;;;;;;28.08;13.75;;;;;;;;;;5074644;28;20366;-70
2022/04/17 03:22:22;;;;;;;28.83;13.75;;;6.40;97.10;;;;;;5074301;28;20478;-70
2022/04/17 03:24:48;;;;;;;30.02;13.85;;;;;;;;;;5073094;28;20045;-70
2022/04/17 03:27:14;;;;;;;26.33;13.05;;;;;;;;;;5073087;28;20041;-70
2022/04/17 03:29:40;;;;;;;30.25;13.85;;;;;;;;;;5074338;28;20037;-70
2022/04/17 03:32:06;;;;;;;25.92;13.30;;;;;;;;;;5072908;28;20101;-70
2022/04/17 03:34:33;;;;;;;25.90;13.15;;;;;;;;;;5072916;28;20044;-70
2022/04/17 03:36:59;;;;;;;26.05;13.60;;;;;;;;;;5056188;28;20049;-70
2022/04/17 03:39:25;;;;;;;25.55;13.27;;;;;;;;;;5072845;28;20062;-70
2022/04/17 03:41:51;;;;;;;25.38;13.15;;;;;;;;;;5056596;28;20063;-70
2022/04/17 03:44:17;;;;;;;27.92;14.05;;;;;;;;;;5072714;28;20102;-70
2022/04/17 03:46:44;;;;;;;26.40;14.07;;;;;;;;;;5072899;28;20071;-70
2022/04/17 03:49:10;;;;;;;25.77;13.13;;;;;;;;;;5072889;28;20041;-70
2022/04/17 03:51:36;;;;;;;31.73;12.73;;;;;;;;;;5072706;28;20048;-70
2022/04/17 03:54:02;;;;;;;31.27;13.93;;;;;;;;;;5072627;28;20044;-69
2022/04/17 03:56:28;;;;;;;26.55;14.90;;;;;;;;;;5072561;28;20123;-69
2022/04/17 03:58:54;;;;;;;24.33;13.00;;;;;;;;;;5073834;28;20445;-70
2022/04/17 04:01:21;;;;;;;25.80;14.10;;;;;;;;;;5072417;28;20515;-70
2022/04/17 04:03:47;;;;;;;27.90;13.13;;;;;;;;;;5072688;28;20049;-70
2022/04/17 04:06:14;;;;;;;29.85;16.02;;;;;;;;;;5072229;28;20488;-70
2022/04/17 04:08:40;;;;;;;24.35;13.90;;;;;;;;;;5072358;28;20040;-70
2022/04/17 04:11:06;;;;;;;35.28;15.65;;;;;;;;;;5072242;28;20048;-70
2022/04/17 04:13:32;;;;;;;25.92;13.52;;;;;;;;;;5072170;28;20056;-70
2022/04/17 04:15:58;;;;;;;35.55;15.45;;;;;;;;;;5072165;28;20059;-70
2022/04/17 04:18:24;;;;;;;28.38;14.27;;;;;;;;;;5072103;28;20051;-70
2022/04/17 04:20:51;;;;;;;28.75;15.05;;;;;;;;;;5072273;28;20081;-70
2022/04/17 04:23:19;;;;;;;27.73;15.07;;;;;;;;;;5071851;28;20401;-70
2022/04/17 04:25:45;;;;;;;29.08;15.00;;;;;;;;;;5073682;28;20090;-70
2022/04/17 04:30:56;;;;;;;27.05;14.75;;;;;;;;;;5071889;28;20040;-70
2022/04/17 04:33:22;;;;;;;30.23;14.95;;;;;;;;;;5072260;28;20119;-70
2022/04/17 04:35:48;;;;;;;31.95;14.85;;;;;;;;;;5071937;28;20090;-70
2022/04/17 04:38:14;;;;;;;25.40;13.93;;;;;;;;;;5072075;28;20048;-70
2022/04/17 04:40:40;;;;;;;31.85;16.45;;;;;;;;;;5072144;28;20049;-69
2022/04/17 04:43:06;;;;;;;32.38;15.32;;;;;;;;;;5072207;28;20048;-69
2022/04/17 04:46:33;;;;;;;27.45;15.23;;;;;;;;;;5072036;28;20041;-69
2022/04/17 04:51:13;;;;;;;30.98;15.45;;;;;;;;;;5057780;28;20129;-70
2022/04/17 04:53:39;;;;;;;30.05;15.90;;;;;;;;;;5072121;28;20046;-70
2022/04/17 04:56:06;;;;;;;31.10;15.35;;;;;;;;;;5055034;28;20426;-69
2022/04/17 04:58:32;;;;;;;29.98;15.02;;;;;;;;;;5071738;28;20033;-69
2022/04/17 05:00:58;;;;;;;29.25;15.10;;;;;;;;;;5055056;28;20044;-69
2022/04/17 05:03:25;;;;;;;29.17;15.40;;;;;;;;;;5071917;28;20084;-69
2022/04/17 05:05:51;;;;;;;33.05;15.45;;;;;;;;;;5071602;28;20382;-69
2022/04/17 05:08:18;;;;;;;28.02;15.10;;;;;;;;;;5055003;28;20072;-69
2022/04/17 05:10:45;;;;;;;29.23;16.00;;;;;;;;;;5071521;28;20115;-69
2022/04/17 05:13:11;;;;;;;25.95;15.32;;;;;;;;;;5071331;28;20508;-69
2022/04/17 05:15:37;;;;;;;29.95;15.60;;;;;;;;;;5071625;28;20055;-69
2022/04/17 05:18:03;;;;;;;37.88;16.10;;;;;;;;;;5071551;28;20047;-69
2022/04/17 05:20:33;;;;;;;29.05;14.90;;;;;;;;;;5071737;28;20045;-70
2022/04/17 05:23:06;;;;;;;32.72;16.65;;;;;;;;;;5071975;28;20473;-70
2022/04/17 05:25:32;;;;;;;32.63;15.75;;;;;;;;;;5054884;28;20087;-70
2022/04/17 05:27:58;;;;;;;31.60;16.00;;;;;;;;;;5071430;28;20051;-70
2022/04/17 05:30:24;;;;;;;28.45;16.05;;;;;;;;;;5073477;28;20041;-70
2022/04/17 05:32:50;;;;;;;34.55;16.58;;;;;;;;;;5075165;28;20058;-70
2022/04/17 05:35:16;;;;;;;31.55;16.08;;;;;;;;;;5075101;28;20048;-70
2022/04/17 05:37:42;;;;;;;31.48;16.33;;;;;;;;;;5075127;28;20050;-69
2022/04/17 05:40:09;;;;;;;29.45;15.68;;;;;;;;;;5075333;28;20090;-69
2022/04/17 05:42:35;;;;;;;37.30;16.75;;;;;;;;;;5075167;28;20119;-69
2022/04/17 05:45:02;;;;;;;38.78;17.25;;;5.90;98.30;;;;;;5076189;28;20467;-69
2022/04/17 05:47:29;;;;;;;35.75;17.17;;;;;;;;;;5075239;28;20072;-70
2022/04/17 05:49:55;;;;;;;34.38;17.38;;;;;;;;;;5074920;28;20483;-70
2022/04/17 05:52:21;;;;;;;31.80;17.02;;;;;;;;;;5075901;28;20033;-70
2022/04/17 05:54:48;;;;;;;38.42;17.63;;;;;;;;;;5058365;28;20045;-70
2022/04/17 05:57:14;;;;;;;36.65;16.13;;;;;;;;;;5074862;28;20036;-70
2022/04/17 05:59:40;;;;;;;32.40;17.48;;;;;;;;;;5041595;28;20044;-70
2022/04/17 06:02:08;;;;;;;37.13;17.65;;;;;;;;;;5074723;28;20079;-70
2022/04/17 06:04:34;;;;;;;38.17;18.67;;;;;;;;;;5075822;28;20044;-70
2022/04/17 06:07:00;;;;;;;39.65;18.13;;;;;;;;;;5074459;28;20044;-69
2022/04/17 06:09:26;;;;;;;35.10;16.90;;;;;;;;;;5074524;28;20044;-69
2022/04/17 06:11:52;;;;;;;38.15;17.02;;;;;;;;;;5074587;28;20040;-69
2022/04/17 06:14:18;;;;;;;31.20;17.30;;;;;;;;;;5041113;28;20137;-69
2022/04/17 06:16:47;;;;;;;37.28;16.75;;;;;;;;;;5074589;28;20142;-70
2022/04/17 06:19:14;;;;;;;38.60;18.10;;;;;;;;;;5074530;28;20480;-70
2022/04/17 06:21:40;;;;;;;34.03;17.98;;;;;;;;;;5074489;28;20487;-70
2022/04/17 06:24:06;;;;;;;35.28;18.23;;;;;;;;;;5075657;28;20048;-71
2022/04/17 06:26:33;;;;;;;37.63;17.75;;;;;;;;;;5074245;28;20051;-71
2022/04/17 06:29:05;;;;;;;37.28;17.58;;;;;;;;;;5075541;28;20051;-71
2022/04/17 06:31:32;;;;;;;37.15;17.45;;;;;;;;;;5074150;28;20037;-71
2022/04/17 06:33:58;;;;;;;34.17;17.98;;;;;;;;;;5074129;28;20128;-71
2022/04/17 06:36:24;;;;;;;32.53;17.13;;;;;;;;;;5075507;28;20032;-71
2022/04/17 06:38:50;;;;;;;30.63;16.42;;;;;;;;;;5074298;28;20066;-71
2022/04/17 06:41:16;;;;;;;36.80;16.80;;;;;;;;;;5073641;28;20428;-71
2022/04/17 06:43:42;;;;;;;33.95;18.50;;;;;;;;;;5073870;28;20090;-70
2022/04/17 06:46:08;;;;;;;33.08;17.38;;;;;;;;;;5057041;28;20052;-70
2022/04/17 06:48:34;;;;;;;32.08;17.50;;;;;;;;;;5075084;28;20048;-70
2022/04/17 06:51:00;;;;;;;35.58;17.45;;;;;;;;;;5073716;28;20044;-70
2022/04/17 06:53:26;;;;;;;37.60;17.67;;;;;;;;;;5073937;28;20033;-70
2022/04/17 06:55:52;;;;;;;34.72;17.10;;;;;;;;;;5075116;28;20048;-71
2022/04/17 06:58:19;;;;;;;36.47;16.88;;;;;;;;;;5056937;28;20051;-71
2022/04/17 07:00:46;;;;;;;33.88;18.00;;;7.70;97.80;;;;;;5073607;28;20078;-71
2022/04/17 07:03:15;;;;;;;38.17;17.70;;;;;;;;;;5073807;28;20431;-70
2022/04/17 07:05:42;;;;;;;38.83;16.48;;;8.00;97.80;;;;;;5073398;28;20044;-70
2022/04/17 07:08:08;;;;;;;33.90;16.65;;;;;;;;;;5056726;28;20047;-70
2022/04/17 07:10:39;;;;;;;34.28;17.20;;;8.20;97.90;;;;;;5056787;28;20047;-70
2022/04/17 07:13:07;;;;;;;35.97;17.08;;;8.10;97.70;;;;;;5073153;28;20043;-70
2022/04/17 07:15:33;;;;;;;31.58;15.20;;;;;;;;;;5073217;28;20056;-71
2022/04/17 07:17:59;;;;;;;30.83;16.75;;;;;;;;;;5073314;28;20045;-71
2022/04/17 07:20:26;;;;;;;33.40;16.58;;;;;;;;;;5056497;28;20048;-71
2022/04/17 07:22:52;;;;;;;33.05;16.25;;;;;;;;;;5073154;28;20044;-71
2022/04/17 07:25:18;;;;;;;34.05;15.70;;;;;;;;;;5072939;28;20076;-70
2022/04/17 07:27:45;;;;;;;36.40;16.70;;;;;;;;;;5073127;28;20033;-70
2022/04/17 07:30:21;;;;;;;34.10;16.63;;;8.50;97.20;;;;;;5072993;28;20203;-70
2022/04/17 07:32:51;;;;;;;32.28;15.75;;;8.60;97.00;;;;;;5072940;28;20033;-70
2022/04/17 07:35:18;;;;;;;31.10;15.27;;;;;;;;;;5074302;28;20044;-69
2022/04/17 07:37:55;;;;;;;37.45;16.50;;;8.70;97.00;;;;;;5074265;28;20393;-70
2022/04/17 07:40:25;;;;;;;34.75;16.92;;;8.70;96.60;;;;;;5074047;28;20047;-69
2022/04/17 07:42:51;;;;;;;29.40;15.68;;;;;;;;;;5073089;28;20044;-69
2022/04/17 07:45:18;;;;;;;34.35;16.60;;;8.90;95.90;;;;;;5055964;28;20178;-69
2022/04/17 07:47:44;;;;;;;35.30;16.55;;;;;;;;;;5072830;28;20442;-70
2022/04/17 07:50:15;;;;;;;32.75;16.27;;;;;;;;;;5072729;28;20076;-69
2022/04/17 07:52:42;;;;;;;27.85;14.63;;;9.30;95.60;;;;;;5071958;28;20040;-69
2022/04/17 07:55:10;;;;;;;33.00;15.20;;;;;;;;;;5072947;28;20040;-69
2022/04/17 08:00:22;;;;;;;27.83;14.20;;;;;;;;;;5072796;28;20048;-69
2022/04/17 08:03:08;;;;;;;30.17;14.20;;;9.50;94.60;;;;;;5072431;28;20048;-69
2022/04/17 08:05:38;;;;;;;29.80;14.93;;;9.70;95.40;;;;;;5055792;28;20037;-69
2022/04/17 08:08:04;;;;;;;30.27;14.77;;;;;;;;;;5072252;28;20050;-69
2022/04/17 08:10:30;;;;;;;25.83;13.57;;;;;;;;;;5072262;28;20047;-69
2022/04/17 08:12:56;;;;;;;32.60;14.43;;;;;;;;;;5072175;28;20141;-69
2022/04/17 08:15:22;;;;;;;33.00;13.65;;;;;;;;;;5072058;28;20060;-69
2022/04/17 08:17:48;;;;;;;27.35;14.85;;;;;;;;;;5072350;28;20573;-69
2022/04/17 08:20:14;;;;;;;27.92;13.95;;;;;;;;;;5073544;28;20488;-69
2022/04/17 08:22:41;;;;;;;29.00;14.18;;;;;;;;;;5055495;28;20048;-69
2022/04/17 08:25:07;;;;;;;26.48;13.35;;;10.00;94.00;;;;;;5072119;28;20396;-70
2022/04/17 08:27:33;;;;;;;25.70;13.40;;;;;;;;;;5072097;28;20047;-70
2022/04/17 08:30:01;;;;;;;24.60;12.52;;;;;;;;;;5071973;28;20033;-70
2022/04/17 08:32:27;;;;;;;22.02;11.95;;;;;;;;;;5072487;28;20055;-70
2022/04/17 08:34:53;;;;;;;40.90;15.50;;;;;;;;;;5073370;28;20048;-70
2022/04/17 08:37:19;;;;;;;25.67;14.10;;;;;;;;;;5073285;28;20057;-70
2022/04/17 08:39:45;;;;;;;24.85;13.13;;;;;;;;;;5073396;28;20052;-70
2022/04/17 08:42:12;;;;;;;25.58;13.25;;;10.70;93.60;;;;;;5072344;28;20051;-69
2022/04/17 08:44:38;;;;;;;25.35;13.43;;;;;;;;;;5071729;28;20512;-69
2022/04/17 08:47:04;;;;;;;25.10;13.57;;;;;;;;;;5055408;28;20039;-69
2022/04/17 08:49:30;;;;;;;28.63;13.43;;;;;;;;;;5071861;28;20037;-70
2022/04/17 08:51:59;;;;;;;30.23;13.40;;;11.00;93.50;;;;;;5071883;28;20123;-70
2022/04/17 08:54:26;;;;;;;28.63;13.98;;;;;;;;;;5073244;28;20434;-70
2022/04/17 08:56:52;;;;;;;24.98;13.07;;;10.90;92.90;;;;;;5073277;28;20033;-70
2022/04/17 08:59:18;;;;;;;29.33;14.20;;;;;;;;;;5071755;28;20048;-70
2022/04/17 09:01:44;;;;;;;28.73;12.73;;;;;;;;;;5055107;28;20036;-70
2022/04/17 09:04:11;;;;;;;27.48;14.18;;;11.40;93.10;;;;;;5073337;28;20076;-70
2022/04/17 09:06:37;;;;;;;26.73;13.02;;;;;;;;;;5075746;28;20548;-70
2022/04/17 09:09:05;;;;;;;24.63;13.75;;;11.50;92.90;;;;;;5076147;28;20485;-70
2022/04/17 09:11:34;;;;;;;23.45;12.75;;;11.70;92.60;;;;;;5075644;28;20088;-70
2022/04/17 09:14:02;;;;;;;27.52;12.75;;;11.00;95.90;;;;;;5076770;28;20061;-70
2022/04/17 09:16:29;;;;;;;23.45;12.45;;;11.90;92.70;;;;;;5075674;28;20090;-70
2022/04/17 09:18:57;;;;;;;28.58;12.88;;;11.80;92.30;;;;;;5075539;28;20048;-70
2022/04/17 09:21:32;;;;;;;26.13;11.93;;;11.90;91.40;;;;;;5059065;28;20128;-70
2022/04/17 09:24:19;;;;;;;24.92;11.77;;;;;;;;;;5058896;28;20052;-70
2022/04/17 09:26:49;;;;;;;23.92;12.35;;;;;;;;;;5075505;28;20032;-70
2022/04/17 09:29:24;;;;;;;22.23;11.93;;;12.00;92.00;;;;;;5075482;28;20400;-70
2022/04/17 09:31:59;;;;;;;30.45;11.82;;;;;;;;;;5075652;28;20075;-70
2022/04/17 09:34:26;;;;;;;24.35;12.13;;;;;;;;;;5058352;28;20093;-70
2022/04/17 09:36:56;;;;;;;26.42;11.77;;;12.40;91.30;;;;;;5075422;28;20369;-70
2022/04/17 09:39:22;;;;;;;24.27;12.00;;;;;;;;;;5075212;28;20044;-70
2022/04/17 09:41:52;;;;;;;22.23;11.88;;;;;;;;;;5042083;28;20048;-70
2022/04/17 09:44:36;;;;;;;23.52;12.00;;;;;;;;;;5076808;28;20416;-70
2022/04/17 09:47:04;;;;;;;25.50;11.60;;;12.90;91.20;;;;;;5058679;28;20044;-70
2022/04/17 09:49:30;;;;;;;20.38;10.95;;;;;;;;;;5075203;28;20063;-70
2022/04/17 09:52:07;;;;;;;22.77;11.93;;;;;;;;;;5074872;28;20044;-70
2022/04/17 09:54:32;;;;;;;25.48;11.98;;;13.60;94.40;;;;;;5075020;28;20080;-70
2022/04/17 09:56:59;;;;;;;22.17;12.32;;;;;;;;;;5074752;28;20129;-69
2022/04/17 09:59:25;;;;;;;21.20;11.57;;;;;;;;;;5074877;28;20040;-70
2022/04/17 10:01:54;;;;;;;21.17;11.73;;;13.60;90.40;;;;;;5074576;28;20044;-70
2022/04/17 10:04:22;;;;;;;24.92;12.05;;;13.40;90.30;;;;;;5074794;28;20041;-70
2022/04/17 10:06:57;;;;;;;23.70;12.57;;;13.60;88.80;;;;;;5074573;28;20044;-70
2022/04/17 10:09:23;;;;;;;23.35;12.00;;;;;;;;;;5075031;28;20453;-70
2022/04/17 10:11:51;;;;;;;19.92;10.48;;;;;;;;;;5074788;28;20036;-70
2022/04/17 10:14:18;;;;;;;21.45;11.55;;;13.70;89.10;;;;;;5074208;28;20057;-70
2022/04/17 10:16:48;;;;;;;20.75;10.50;;;14.10;88.90;;;;;;5073727;28;20072;-70
2022/04/17 10:19:15;;;;;;;21.80;11.45;;;;;;;;;;5073996;28;20512;-70
2022/04/17 10:21:42;;;;;;;22.50;12.80;;;14.30;87.50;;;;;;5074338;28;20043;-71
2022/04/17 10:24:13;;;;;;;22.13;11.07;;;14.20;88.00;;;;;;5074223;28;20345;-71
2022/04/17 10:26:44;;;;;;;22.63;10.73;;;15.20;92.70;;;;;;5074300;28;20040;-71
2022/04/17 10:29:19;;;;;;;23.60;11.80;;;14.50;87.80;;;;;;5074145;28;20557;-71
2022/04/17 10:31:54;;;;;;;20.58;11.23;;;14.50;87.00;;;;;;5075316;28;20037;-70
2022/04/17 10:34:42;;;;;;;24.20;11.55;;;15.10;91.90;;;;;;5074053;28;20047;-70
2022/04/17 10:37:36;;;;;;;22.10;12.15;;;14.70;83.90;;;;;;5073998;28;20477;-70
2022/04/17 10:40:04;;;;;;;22.75;11.68;;;14.20;87.50;;;;;;5073916;28;20041;-70
2022/04/17 10:42:52;;;;;;;22.02;10.63;;;14.90;85.90;;;;;;5074065;28;20064;-70
2022/04/17 10:45:19;;;;;;;21.65;10.50;;;;;;;;;;5073821;28;20670;-70
2022/04/17 10:48:00;;;;;;;21.40;10.32;;;15.10;85.30;;;;;;5073795;28;20041;-70
2022/04/17 10:50:30;;;;;;;21.05;10.85;;;15.60;85.40;;;;;;5073956;28;20119;-70
2022/04/17 10:52:56;;;;;;;22.45;11.00;;;;;;;;;;5073613;28;20378;-70
2022/04/17 10:55:22;;;;;;;19.20;9.45;;;;;;;;;;5073772;28;20040;-70
2022/04/17 10:57:49;;;;;;;18.45;9.73;;;15.80;83.30;;;;;;5073678;28;20056;-70
2022/04/17 11:00:36;;;;;;;22.65;10.68;;;16.00;90.50;;;;;;5073874;28;20107;-70
2022/04/17 11:03:09;;;;;;;20.30;10.80;;;15.70;83.20;;;;;;5073767;28;20049;-70
2022/04/17 11:08:26;;;;;;;17.52;9.57;;;;;;;;;;5073518;28;20127;-71
2022/04/17 11:10:57;;;;;;;18.17;9.55;;;16.60;89.60;;;;;;5073563;28;20119;-71
2022/04/17 11:13:26;;;;;;;21.33;9.95;;;16.10;80.90;;;;;;5073470;28;20033;-71
2022/04/17 11:15:56;;;;;;;17.77;9.60;;;16.60;88.90;;;;;;5073236;28;20084;-70
2022/04/17 11:18:29;;;;;;;17.63;8.52;;;16.10;87.70;;;;;;5073489;28;20044;-71
2022/04/17 11:20:55;;;;;;;16.00;9.77;;;16.10;86.70;;;;;;5073532;28;20559;-71
2022/04/17 11:23:49;;;;;;;19.85;8.93;;;16.90;87.20;;;;;;5073130;28;20420;-71
2022/04/17 11:26:15;;;;;;;22.38;8.77;;;16.20;86.00;;;;;;5073138;28;20374;-71
2022/04/17 11:28:41;;;;;;;19.15;8.70;;;;;;;;;;5055595;28;20131;-71
2022/04/17 11:31:07;;;;;;;19.05;8.82;;;;;;;;;;5056422;28;20499;-71
2022/04/17 11:33:34;;;;;;;19.88;9.10;;;;;;;;;;5056547;28;20037;-71
2022/04/17 11:36:00;;;;;;;16.30;8.55;;;;;;;;;;5073031;28;20045;-71
2022/04/17 11:38:26;;;;;;;18.77;8.55;;;16.90;84.50;;;;;;5056410;28;20538;-71
2022/04/17 11:40:52;;;;;;;16.50;9.07;;;16.60;84.50;;;;;;5073001;28;20044;-71
2022/04/17 11:43:19;;;;;;;22.42;8.45;;;17.70;84.60;;;;;;5056276;28;20046;-71
2022/04/17 11:45:46;;;;;;;12.90;7.57;;;17.10;75.90;;;;;;5072712;28;20053;-71
2022/04/17 11:48:14;;;;;;;12.45;7.75;;;16.80;80.00;;;;;;5056539;28;20040;-71
2022/04/17 11:50:41;;;;;;;14.32;8.18;;;18.10;84.00;;;;;;5072661;28;20036;-71
2022/04/17 11:53:12;;;;;;;14.13;8.25;;;17.30;84.00;;;;;;5072672;28;20468;-71
2022/04/17 11:55:40;;;;;;;15.68;8.75;;;17.70;75.60;;;;;;5073923;28;20055;-71
2022/04/17 11:58:21;;;;;;;17.40;8.07;;;17.70;75.00;;;;;;5073902;28;20052;-71
2022/04/17 12:00:57;;;;;;;20.85;9.00;;;17.80;74.20;;;;;;5072471;28;20090;-71
2022/04/17 12:03:55;;;;;;;19.92;9.20;;;17.80;74.30;;;;;;5073800;28;20049;-71
2022/04/17 12:06:32;;;;;;;17.17;8.25;;;17.90;74.20;;;;;;5072529;28;20059;-71
2022/04/17 12:08:58;;;;;;;15.48;8.70;;;;;;;;;;5072489;28;20504;-71
2022/04/17 12:11:24;;;;;;;16.17;8.75;;;;;;;;;;5055954;28;20039;-71
2022/04/17 12:13:56;;;;;;;17.48;9.13;;;18.10;82.10;;;;;;5072294;28;20082;-71
2022/04/17 12:16:22;;;;;;;19.42;8.32;;;;;;;;;;5072411;28;20097;-71
2022/04/17 12:18:54;;;;;;;16.20;8.27;;;17.80;81.20;;;;;;5072311;28;20129;-71
2022/04/17 12:21:28;;;;;;;17.00;9.13;;;18.40;72.40;;;;;;5055552;28;20047;-71
2022/04/17 12:23:55;;;;;;;16.48;8.88;;;;;;;;;;5072551;28;20048;-71
2022/04/17 12:26:21;;;;;;;18.70;8.90;;;;;;;;;;5073355;28;20048;-71
2022/04/17 12:28:47;;;;;;;22.05;9.65;;;18.70;70.90;;;;;;5072208;28;20435;-71
2022/04/17 12:31:14;;;;;;;19.75;9.63;;;18.90;70.90;;;;;;5072155;28;20047;-71
2022/04/17 12:33:40;;;;;;;20.17;9.45;;;;;;;;;;5072395;28;20098;-71
2022/04/17 12:36:12;;;;;;;21.25;10.60;;;18.40;79.30;;;;;;5072254;28;20036;-71
2022/04/17 12:38:40;;;;;;;24.05;11.30;;;19.10;70.60;;;;;;5071782;28;20141;-71
2022/04/17 12:41:22;;;;;;;18.58;10.73;;;19.50;79.40;;;;;;5072091;28;20098;-71
2022/04/17 12:43:49;;;;;;;19.85;10.13;;;;;;;;;;5073214;28;20043;-71
2022/04/17 12:46:42;;;;;;;18.20;10.93;;;19.40;70.80;;;;;;5071826;28;20040;-71
2022/04/17 12:49:11;;;;;;;;;;;19.30;71.00;;;;;;5055724;28;20036;-71
2022/04/17 12:51:39;;;;;;;17.52;10.32;;;20.10;74.20;;;;;;5071947;28;20326;-71
2022/04/17 12:54:12;;;;;;;21.67;10.45;;;19.90;78.80;;;;;;5071837;28;20044;-71
2022/04/17 12:56:38;;;;;;;18.38;10.73;;;;;;;;;;5071549;28;20048;-71
2022/04/17 12:59:07;;;;;;;18.23;10.98;;;;;;;;;;5071741;28;20087;-71
2022/04/17 13:01:37;;;;;;;21.10;10.93;;;19.90;69.90;;;;;;5071847;28;20507;-71
2022/04/17 13:04:19;;;;;;;20.75;11.70;;;19.80;67.80;;;;;;5071796;28;20045;-71
2022/04/17 13:06:46;;;;;;;17.90;10.32;;;19.90;69.10;;;;;;5073251;28;20045;-71
2022/04/17 13:09:16;;;;;;;18.75;10.95;;;20.10;68.50;;;;;;5055220;28;20394;-71
2022/04/17 13:11:53;;;;;;;23.27;10.93;;;19.30;77.00;;;;;;5071536;28;20040;-71
2022/04/17 13:14:23;;;;;;;20.33;10.30;;;19.50;75.40;;;;;;5072732;28;20109;-71
2022/04/17 13:17:00;;;;;;;19.20;11.25;;;20.60;77.60;;;;;;5071673;28;20052;-71
2022/04/17 13:19:31;;;;;;;21.10;11.25;;;20.40;76.40;;;;;;5071622;28;20036;-71
2022/04/17 13:21:58;;;;;;;24.35;11.45;;;20.40;68.30;;;;;;5071678;28;20048;-71
2022/04/17 13:24:28;;;;;;;17.90;10.43;;;20.60;68.10;;;;;;5055044;28;20041;-71
2022/04/17 13:26:57;;;;;;;19.45;10.25;;;21.10;75.60;;;;;;5054792;28;20500;-71
2022/04/17 13:29:24;;;;;;;17.13;10.98;;;20.90;75.50;;;;;;5055088;28;20437;-71
2022/04/17 13:31:50;;;;;;;19.98;10.35;;;21.20;75.20;;;;;;5054878;28;20499;-71
2022/04/17 13:34:17;;;;;;;18.70;10.23;;;;;;;;;;5071438;28;20048;-71
2022/04/17 13:36:44;;;;;;;16.70;10.15;;;;;;;;;;5072643;28;20036;-72
2022/04/17 13:39:10;;;;;;;16.25;9.88;;;;;;;;;;5072690;28;20048;-72
2022/04/17 13:41:36;;;;;;;20.10;10.35;;;;;;;;;;5072658;28;20036;-71
2022/04/17 13:44:02;;;;;;;16.45;9.88;;;21.20;74.10;;;;;;5071154;28;20052;-71
2022/04/17 13:46:31;;;;;;;16.33;9.55;;;;;;;;;;5071300;28;20045;-71
2022/04/17 13:48:57;;;;;;;21.17;10.38;;;21.60;74.00;;;;;;5071400;28;20511;-71
2022/04/17 13:51:24;;;;;;;19.15;10.07;;;21.20;66.80;;;;;;5073630;28;20423;-71
2022/04/17 13:53:50;;;;;;;17.17;9.95;;;20.80;73.60;;;;;;5074934;28;20044;-71
2022/04/17 13:56:17;;;;;;;23.00;9.77;;;21.50;73.40;;;;;;5074896;28;20044;-71
2022/04/17 13:58:44;;;;;;;17.95;10.18;;;21.80;73.50;;;;;;5075242;28;20048;-71
2022/04/17 14:01:10;;;;;;;15.32;9.27;;;21.20;68.30;;;;;;5075002;28;20097;-71
2022/04/17 14:03:36;;;;;;;16.73;9.70;;;;;;;;;;5074712;28;20040;-71
2022/04/17 14:06:01;;;;;;;16.42;9.85;;;20.70;72.10;;;;;;5074650;28;20101;-71
2022/04/17 14:08:28;;;;;;;18.73;9.07;;;20.90;71.70;;;;;;5074595;28;20044;-71